createdAt,value
2018-06-22T00:02:18.933Z,100956.24
2018-06-22T00:05:24.736Z,100958.05
2018-06-22T00:08:31.813Z,100957.98
2018-06-22T00:11:36.973Z,100970.83
2018-06-22T00:14:41.815Z,100964.33
2018-06-22T00:17:47.699Z,100961.77
2018-06-22T00:20:53.576Z,100954.12
2018-06-22T00:23:59.301Z,100948.23
2018-06-22T00:27:04.407Z,100952.53
2018-06-22T00:30:09.289Z,100944.91
2018-06-22T00:33:14.142Z,100941.58
2018-06-22T00:36:18.948Z,100937.00
2018-06-22T00:39:24.826Z,100940.62
2018-06-22T00:42:30.675Z,100942.14
2018-06-22T00:45:36.464Z,100943.95
2018-06-22T00:48:43.136Z,100951.41
2018-06-22T00:51:49.317Z,100952.77
2018-06-22T00:54:54.915Z,100953.22
2018-06-22T00:58:00.937Z,100962.59
2018-06-22T01:01:06.065Z,100951.98
2018-06-22T01:04:11.876Z,100945.52
2018-06-22T01:07:16.990Z,100939.59
2018-06-22T01:10:21.804Z,100932.30
2018-06-22T01:13:26.912Z,100931.89
2018-06-22T01:16:32.015Z,100927.20
2018-06-22T01:19:38.783Z,100922.52
2018-06-22T01:22:44.969Z,100920.86
2018-06-22T01:25:50.669Z,100928.04
2018-06-22T01:30:00.665Z,100929.66
2018-06-22T01:33:06.142Z,100935.74
2018-06-22T01:36:12.267Z,100935.86
2018-06-22T01:39:17.365Z,100934.87
2018-06-22T01:42:23.223Z,100926.38
2018-06-22T01:45:29.293Z,100930.22
2018-06-22T01:48:34.136Z,100930.44
2018-06-22T01:51:39.984Z,100932.11
2018-06-22T01:54:45.467Z,100933.17
2018-06-22T01:57:50.317Z,100938.72
2018-06-22T02:00:55.781Z,100922.45
2018-06-22T02:04:01.323Z,100937.55
2018-06-22T02:07:06.450Z,100942.16
2018-06-22T02:10:11.720Z,100938.00
2018-06-22T02:13:16.820Z,100933.59
2018-06-22T02:16:22.284Z,100941.40
2018-06-22T02:19:28.315Z,100938.83
2018-06-22T02:22:34.133Z,100944.87
2018-06-22T02:25:40.663Z,100948.34
2018-06-22T02:28:46.175Z,100958.61
2018-06-22T02:31:52.263Z,100968.58
2018-06-22T02:34:58.912Z,100955.87
2018-06-22T02:38:05.212Z,100948.63
2018-06-22T02:41:12.072Z,100938.36
2018-06-22T02:44:17.755Z,100938.73
2018-06-22T02:47:22.852Z,100923.38
2018-06-22T02:50:28.658Z,100915.81
2018-06-22T02:53:34.916Z,100911.89
2018-06-22T02:56:41.761Z,100907.97
2018-06-22T02:59:47.890Z,100917.63
2018-06-22T03:02:53.195Z,100915.58
2018-06-22T03:05:58.453Z,100916.55
2018-06-22T03:09:03.296Z,100917.18
2018-06-22T03:12:08.243Z,100920.65
2018-06-22T03:15:13.060Z,100934.25
2018-06-22T03:18:17.884Z,100923.15
2018-06-22T03:21:23.420Z,100923.02
2018-06-22T03:24:28.516Z,100920.63
2018-06-22T03:27:33.817Z,100914.97
2018-06-22T03:30:40.458Z,100920.11
2018-06-22T03:33:47.152Z,100913.06
2018-06-22T03:36:55.694Z,100915.70
2018-06-22T03:40:01.555Z,100913.06
2018-06-22T03:43:06.364Z,100915.25
2018-06-22T03:46:11.464Z,100918.13
2018-06-22T03:49:16.255Z,100926.28
2018-06-22T03:52:22.343Z,100925.52
2018-06-22T03:55:27.995Z,100924.30
2018-06-22T03:58:34.004Z,100938.73
2018-06-22T04:01:39.075Z,100930.27
2018-06-22T04:04:45.264Z,100934.88
2018-06-22T04:07:51.625Z,100932.70
2018-06-22T04:10:57.438Z,100935.20
2018-06-22T04:14:02.429Z,100923.12
2018-06-22T04:17:07.210Z,100922.16
2018-06-22T04:20:12.717Z,100922.98
2018-06-22T04:23:17.803Z,100919.89
2018-06-22T04:26:22.621Z,100925.71
2018-06-22T04:29:29.542Z,100923.45
2018-06-22T04:32:35.650Z,100922.06
2018-06-22T04:35:41.627Z,100927.81
2018-06-22T04:38:47.594Z,100925.37
2018-06-22T04:41:53.768Z,100925.28
2018-06-22T04:44:59.000Z,100925.28
2018-06-22T04:48:07.701Z,100934.36
2018-06-22T04:51:13.352Z,100936.45
2018-06-22T04:54:19.251Z,100930.60
2018-06-22T04:57:25.215Z,100932.69
2018-06-22T05:00:30.281Z,100945.57
2018-06-22T05:03:36.305Z,100950.03
2018-06-22T05:06:41.516Z,100942.25
2018-06-22T05:09:46.909Z,100947.46
2018-06-22T05:12:53.060Z,100950.97
2018-06-22T05:15:58.361Z,100952.59
2018-06-22T05:19:04.503Z,100955.39
2018-06-22T05:22:10.210Z,100954.28
2018-06-22T05:25:17.100Z,100959.09
2018-06-22T05:28:26.532Z,100959.17
2018-06-22T05:31:31.957Z,100969.61
2018-06-22T05:34:37.743Z,100978.68
2018-06-22T05:37:43.568Z,100980.64
2018-06-22T05:40:49.767Z,100977.20
2018-06-22T05:43:55.823Z,100986.20
2018-06-22T05:47:02.636Z,100987.36
2018-06-22T05:50:08.359Z,100990.94
2018-06-22T05:53:14.962Z,100996.69
2018-06-22T05:56:20.643Z,100995.73
2018-06-22T05:59:26.515Z,100995.95
2018-06-22T06:02:31.640Z,100992.56
2018-06-22T06:05:42.232Z,100999.30
2018-06-22T06:08:57.020Z,101001.37
2018-06-22T06:12:08.241Z,101006.36
2018-06-22T06:15:13.727Z,101005.69
2018-06-22T06:18:19.327Z,101015.98
2018-06-22T06:21:24.416Z,101027.40
2018-06-22T06:24:29.992Z,101032.27
2018-06-22T06:27:34.902Z,101031.00
2018-06-22T06:30:40.976Z,101040.36
2018-06-22T06:33:46.438Z,101043.19
2018-06-22T06:36:51.246Z,101050.55
2018-06-22T06:39:57.116Z,101055.08
2018-06-22T06:43:02.233Z,101065.06
2018-06-22T06:46:07.943Z,101063.40
2018-06-22T06:49:12.786Z,101067.42
2018-06-22T06:52:18.184Z,101078.84
2018-06-22T06:55:23.801Z,101077.19
2018-06-22T06:58:28.590Z,101076.21
2018-06-22T07:01:33.643Z,101083.16
2018-06-22T07:04:39.232Z,101083.55
2018-06-22T07:07:44.375Z,101090.89
2018-06-22T07:10:50.486Z,101093.86
2018-06-22T07:13:56.009Z,101096.80
2018-06-22T07:17:01.086Z,101095.89
2018-06-22T07:20:08.645Z,101098.94
2018-06-22T07:23:14.330Z,101105.00
2018-06-22T07:26:19.401Z,101104.22
2018-06-22T07:29:25.392Z,101107.42
2018-06-22T07:32:30.516Z,101110.05
2018-06-22T07:35:36.528Z,101107.80
2018-06-22T07:38:42.600Z,101115.44
2018-06-22T07:41:48.655Z,101120.65
2018-06-22T07:44:53.744Z,101118.35
2018-06-22T07:47:58.822Z,101120.09
2018-06-22T07:51:04.904Z,101130.56
2018-06-22T07:54:11.379Z,101124.15
2018-06-22T07:57:17.742Z,101134.11
2018-06-22T08:00:24.594Z,101128.19
2018-06-22T08:03:30.573Z,101137.33
2018-06-22T08:06:35.764Z,101133.53
2018-06-22T08:09:42.740Z,101142.30
2018-06-22T08:12:48.779Z,101136.73
2018-06-22T08:15:54.580Z,101133.36
2018-06-22T08:18:59.789Z,101140.33
2018-06-22T08:22:06.850Z,101136.88
2018-06-22T08:25:12.272Z,101142.37
2018-06-22T08:28:17.964Z,101148.94
2018-06-22T08:31:23.808Z,101147.05
2018-06-22T08:34:30.500Z,101150.89
2018-06-22T08:37:36.507Z,101150.98
2018-06-22T08:40:42.619Z,101151.13
2018-06-22T08:43:48.238Z,101148.39
2018-06-22T08:46:55.252Z,101158.00
2018-06-22T08:50:01.295Z,101162.59
2018-06-22T08:53:07.269Z,101169.91
2018-06-22T08:56:14.371Z,101174.16
2018-06-22T08:59:20.258Z,101178.63
2018-06-22T09:02:26.228Z,101174.84
2018-06-22T09:05:31.315Z,101178.07
2018-06-22T09:08:37.704Z,101181.86
2018-06-22T09:11:44.424Z,101180.41
2018-06-22T09:14:50.325Z,101183.64
2018-06-22T09:17:55.406Z,101178.95
2018-06-22T09:21:00.460Z,101182.46
2018-06-22T09:24:05.568Z,101189.97
2018-06-22T09:27:10.653Z,101179.24
2018-06-22T09:30:15.735Z,101173.81
2018-06-22T09:33:20.824Z,101176.30
2018-06-22T09:36:26.221Z,101176.41
2018-06-22T09:39:33.020Z,101179.28
2018-06-22T09:42:38.968Z,101176.67
2018-06-22T09:45:45.008Z,101188.52
2018-06-22T09:48:50.152Z,101191.45
2018-06-22T09:51:55.330Z,101178.55
2018-06-22T09:55:00.486Z,101179.34
2018-06-22T09:58:06.606Z,101183.86
2018-06-22T10:01:11.800Z,101177.38
2018-06-22T10:04:17.828Z,101189.60
2018-06-22T10:07:22.901Z,101189.36
2018-06-22T10:10:28.933Z,101185.19
2018-06-22T10:13:36.284Z,101192.91
2018-06-22T10:16:42.028Z,101197.26
2018-06-22T10:19:48.139Z,101205.03
2018-06-22T10:22:53.253Z,101197.06
2018-06-22T10:25:58.744Z,101200.23
2018-06-22T10:29:05.183Z,101199.84
2018-06-22T10:32:10.481Z,101213.13
2018-06-22T10:35:16.303Z,101212.48
2018-06-22T10:38:21.735Z,101214.67
2018-06-22T10:41:28.776Z,101213.34
2018-06-22T10:44:33.868Z,101220.64
2018-06-22T10:47:38.983Z,101223.21
2018-06-22T10:50:44.652Z,101223.58
2018-06-22T10:53:51.424Z,101232.37
2018-06-22T10:56:57.671Z,101238.88
2018-06-22T11:00:03.906Z,101237.79
2018-06-22T11:03:09.092Z,101241.73
2018-06-22T11:06:14.584Z,101238.27
2018-06-22T11:09:21.964Z,101249.89
2018-06-22T11:12:28.085Z,101260.49
2018-06-22T11:15:33.317Z,101249.92
2018-06-22T11:18:40.355Z,101258.91
2018-06-22T11:21:46.058Z,101251.73
2018-06-22T11:24:52.569Z,101253.18
2018-06-22T11:27:58.816Z,101256.56
2018-06-22T11:31:03.912Z,101263.95
2018-06-22T11:34:09.817Z,101262.80
2018-06-22T11:37:16.049Z,101259.16
2018-06-22T11:40:22.944Z,101267.59
2018-06-22T11:43:28.874Z,101271.27
2018-06-22T11:46:36.168Z,101267.52
2018-06-22T11:49:42.256Z,101270.28
2018-06-22T11:52:49.415Z,101277.33
2018-06-22T11:55:55.765Z,101267.47
2018-06-22T11:59:01.178Z,101268.58
2018-06-22T12:02:08.277Z,101275.69
2018-06-22T12:05:13.862Z,101266.05
2018-06-22T12:08:19.912Z,101286.50
2018-06-22T12:11:25.377Z,101283.06
2018-06-22T12:14:30.965Z,101268.20
2018-06-22T12:17:37.065Z,101275.22
2018-06-22T12:20:42.480Z,101279.02
2018-06-22T12:23:49.498Z,101287.88
2018-06-22T12:26:55.143Z,101288.60
2018-06-22T12:30:00.193Z,101290.13
2018-06-22T12:33:05.304Z,101289.66
2018-06-22T12:36:11.892Z,101284.52
2018-06-22T12:39:17.518Z,101297.42
2018-06-22T12:42:22.612Z,101310.47
2018-06-22T12:45:28.617Z,101308.70
2018-06-22T12:48:34.515Z,101331.63
2018-06-22T12:51:39.946Z,101332.45
2018-06-22T12:54:45.415Z,101329.75
2018-06-22T12:57:50.514Z,101334.36
2018-06-22T13:00:57.367Z,101322.20
2018-06-22T13:04:03.976Z,101325.27
2018-06-22T13:07:09.768Z,101340.98
2018-06-22T13:10:16.141Z,101338.23
2018-06-22T13:13:21.952Z,101333.98
2018-06-22T13:16:28.105Z,101348.94
2018-06-22T13:19:33.911Z,101340.64
2018-06-22T13:22:39.718Z,101340.53
2018-06-22T13:25:45.734Z,101341.72
2018-06-22T13:28:51.439Z,101342.66
2018-06-22T13:31:56.522Z,101345.01
2018-06-22T13:35:01.948Z,101341.47
2018-06-22T13:38:06.763Z,101349.48
2018-06-22T13:41:12.596Z,101356.42
2018-06-22T13:44:18.552Z,101344.22
2018-06-22T13:47:24.220Z,101354.95
2018-06-22T13:50:29.539Z,101359.78
2018-06-22T13:53:35.527Z,101363.86
2018-06-22T13:56:40.629Z,101367.30
2018-06-22T13:59:45.729Z,101367.47
2018-06-22T14:02:51.688Z,101369.95
2018-06-22T14:06:02.407Z,101369.02
2018-06-22T14:09:10.425Z,101386.78
2018-06-22T14:12:16.708Z,101382.33
2018-06-22T14:15:22.978Z,101391.06
2018-06-22T14:18:29.057Z,101391.97
2018-06-22T14:21:35.288Z,101373.06
2018-06-22T14:24:41.397Z,101372.87
2018-06-22T14:27:47.295Z,101384.93
2018-06-22T14:30:52.748Z,101393.85
2018-06-22T14:33:58.532Z,101385.91
2018-06-22T14:37:07.978Z,101396.09
2018-06-22T14:40:14.112Z,101389.95
2018-06-22T14:43:20.269Z,101399.77
2018-06-22T14:46:26.160Z,101397.75
2018-06-22T14:49:30.980Z,101402.33
2018-06-22T14:52:37.115Z,101411.78
2018-06-22T14:55:47.481Z,101403.52
2018-06-22T14:58:58.028Z,101404.82
2018-06-22T15:02:08.933Z,101415.00
2018-06-22T15:05:19.909Z,101412.47
2018-06-22T15:08:26.964Z,101412.50
2018-06-22T15:11:33.320Z,101409.25
2018-06-22T15:14:38.630Z,101409.97
2018-06-22T15:17:49.000Z,101393.37
2018-06-22T15:20:54.613Z,101414.13
2018-06-22T15:23:59.449Z,101415.64
2018-06-22T15:27:05.640Z,101420.20
2018-06-22T15:30:11.478Z,101418.54
2018-06-22T15:33:23.488Z,101411.58
2018-06-22T15:36:34.828Z,101412.98
2018-06-22T15:39:46.163Z,101420.56
2018-06-22T15:42:56.384Z,101429.11
2018-06-22T15:46:06.576Z,101438.09
2018-06-22T15:49:17.747Z,101434.23
2018-06-22T15:52:28.084Z,101435.50
2018-06-22T15:55:37.729Z,101451.48
2018-06-22T15:58:43.832Z,101462.00
2018-06-22T16:01:49.240Z,101454.63
2018-06-22T16:04:54.067Z,101448.73
2018-06-22T16:07:59.150Z,101459.64
2018-06-22T16:11:05.142Z,101451.23
2018-06-22T16:14:16.288Z,101453.75
2018-06-22T16:17:27.690Z,101446.37
2018-06-22T16:20:38.617Z,101446.91
2018-06-22T16:23:49.656Z,101457.39
2018-06-22T16:27:02.065Z,101453.34
2018-06-22T16:30:08.515Z,101456.96
2018-06-22T16:33:15.608Z,101461.03
2018-06-22T16:36:21.468Z,101462.16
2018-06-22T16:39:28.515Z,101458.38
2018-06-22T16:42:34.373Z,101469.58
2018-06-22T16:45:40.203Z,101465.89
2018-06-22T16:48:45.695Z,101471.45
2018-06-22T16:51:50.800Z,101459.77
2018-06-22T16:54:56.201Z,101461.20
2018-06-22T16:58:02.638Z,101460.53
2018-06-22T17:01:10.663Z,101462.03
2018-06-22T17:04:16.519Z,101459.23
2018-06-22T17:07:28.122Z,101458.66
2018-06-22T17:10:38.903Z,101464.05
2018-06-22T17:13:50.119Z,101469.52
2018-06-22T17:17:01.090Z,101474.23
2018-06-22T17:20:06.989Z,101469.97
2018-06-22T17:23:13.320Z,101472.94
2018-06-22T17:26:19.534Z,101477.92
2018-06-22T17:29:24.660Z,101483.95
2018-06-22T17:32:30.076Z,101479.75
2018-06-22T17:35:35.654Z,101473.66
2018-06-22T17:38:40.928Z,101476.06
2018-06-22T17:41:47.012Z,101471.59
2018-06-22T17:44:52.211Z,101467.90
2018-06-22T17:47:57.380Z,101472.34
2018-06-22T17:51:03.445Z,101465.28
2018-06-22T17:54:09.572Z,101457.70
2018-06-22T17:57:14.976Z,101454.98
2018-06-22T18:00:26.209Z,101447.41
2018-06-22T18:03:37.440Z,101455.73
2018-06-22T18:06:48.694Z,101448.30
2018-06-22T18:10:00.185Z,101457.55
2018-06-22T18:13:05.351Z,101459.95
2018-06-22T18:16:10.606Z,101464.45
2018-06-22T18:19:15.660Z,101457.66
2018-06-22T18:22:21.164Z,101456.18
2018-06-22T18:25:26.604Z,101460.31
2018-06-22T18:28:32.731Z,101461.78
2018-06-22T18:31:37.604Z,101464.00
2018-06-22T18:34:43.301Z,101464.27
2018-06-22T18:37:49.856Z,101464.88
2018-06-22T18:40:56.525Z,101465.06
2018-06-22T18:44:03.528Z,101463.48
2018-06-22T18:47:09.780Z,101460.98
2018-06-22T18:50:15.868Z,101463.35
2018-06-22T18:53:26.985Z,101467.33
2018-06-22T18:58:45.093Z,101458.62
2018-06-22T19:01:56.400Z,101464.86
2018-06-22T19:05:01.580Z,101471.97
2018-06-22T19:08:07.985Z,101474.42
2018-06-22T19:11:14.039Z,101470.25
2018-06-22T19:14:20.033Z,101476.89
2018-06-22T19:17:25.452Z,101479.11
2018-06-22T19:20:30.896Z,101484.59
2018-06-22T19:23:37.695Z,101486.23
2018-06-22T19:26:43.957Z,101492.01
2018-06-22T19:29:49.867Z,101487.47
2018-06-22T19:32:54.964Z,101490.23
2018-06-22T19:36:00.022Z,101483.94
2018-06-22T19:39:07.896Z,101492.38
2018-06-22T19:42:13.592Z,101477.49
2018-06-22T19:45:24.157Z,101479.84
2018-06-22T19:48:35.431Z,101488.05
2018-06-22T19:51:46.274Z,101487.47
2018-06-22T19:54:52.500Z,101489.39
2018-06-22T19:57:57.993Z,101496.45
2018-06-22T20:01:03.200Z,101496.53
2018-06-22T20:04:10.900Z,101497.20
2018-06-22T20:07:16.304Z,101503.30
2018-06-22T20:10:21.356Z,101501.59
2018-06-22T20:13:26.447Z,101506.55
2018-06-22T20:16:31.223Z,101498.13
2018-06-22T20:19:36.038Z,101493.09
2018-06-22T20:22:41.667Z,101503.67
2018-06-22T20:25:48.893Z,101507.26
2018-06-22T20:28:55.876Z,101503.92
2018-06-22T20:32:07.168Z,101499.67
2018-06-22T20:35:17.663Z,101496.92
2018-06-22T20:38:37.748Z,101505.52
2018-06-22T20:41:49.180Z,101504.66
2018-06-22T20:45:00.187Z,101511.73
2018-06-22T20:48:11.472Z,101505.06
2018-06-22T20:51:16.471Z,101515.39
2018-06-22T20:54:22.399Z,101513.80
2018-06-22T20:57:28.300Z,101509.08
2018-06-22T21:00:34.020Z,101510.19
2018-06-22T21:03:39.364Z,101511.11
2018-06-22T21:06:44.848Z,101511.18
2018-06-22T21:09:50.860Z,101514.30
2018-06-22T21:12:56.115Z,101517.39
2018-06-22T21:16:02.163Z,101517.77
2018-06-22T21:19:07.568Z,101514.70
2018-06-22T21:22:14.062Z,101523.44
2018-06-22T21:25:19.664Z,101522.38
2018-06-22T21:28:30.336Z,101521.08
2018-06-22T21:31:40.573Z,101531.91
2018-06-22T21:34:50.996Z,101528.98
2018-06-22T21:38:01.753Z,101527.69
2018-06-22T21:41:08.420Z,101523.52
2018-06-22T21:44:14.125Z,101524.50
2018-06-22T21:47:18.905Z,101537.78
2018-06-22T21:50:25.433Z,101532.93
2018-06-22T21:53:32.808Z,101529.97
2018-06-22T21:56:38.899Z,101529.59
2018-06-22T21:59:43.978Z,101526.92
2018-06-22T22:02:49.413Z,101527.41
2018-06-22T22:05:55.168Z,101527.91
2018-06-22T22:09:01.538Z,101533.44
2018-06-22T22:12:07.390Z,101531.20
2018-06-22T22:15:13.428Z,101533.78
2018-06-22T22:18:19.336Z,101530.03
2018-06-22T22:21:24.520Z,101525.47
2018-06-22T22:24:29.741Z,101531.03
2018-06-22T22:27:35.151Z,101527.55
2018-06-22T22:30:40.808Z,101523.51
2018-06-22T22:33:47.025Z,101521.31
2018-06-22T22:36:52.920Z,101518.69
2018-06-22T22:39:58.385Z,101526.73
2018-06-22T22:43:03.718Z,101524.67
2018-06-22T22:46:09.416Z,101524.23
2018-06-22T22:49:14.521Z,101524.23
2018-06-22T22:52:20.599Z,101522.39
2018-06-22T22:55:26.608Z,101530.05
2018-06-22T22:58:33.916Z,101529.02
2018-06-22T23:01:39.996Z,101531.20
2018-06-22T23:04:45.244Z,101530.27
2018-06-22T23:07:50.665Z,101525.22
2018-06-22T23:10:56.318Z,101522.58
2018-06-22T23:14:01.453Z,101528.17
2018-06-22T23:17:06.608Z,101524.20
2018-06-22T23:20:11.667Z,101530.33
2018-06-22T23:23:29.171Z,101525.11
2018-06-22T23:26:34.697Z,101529.98
2018-06-22T23:29:40.670Z,101523.14
2018-06-22T23:32:46.544Z,101527.73
2018-06-22T23:35:52.984Z,101518.70
2018-06-22T23:38:58.693Z,101523.56
2018-06-22T23:42:05.505Z,101513.56
2018-06-22T23:45:11.216Z,101507.97
2018-06-22T23:48:17.333Z,101507.09
2018-06-22T23:51:23.432Z,101504.91
2018-06-22T23:54:28.891Z,101499.13
2018-06-22T23:57:34.368Z,101500.93
